sensor_id;sensor_type;location;lat;lon;timestamp;temperature;humidity
67641;SHT31;54434;50.096;20.082;2022-08-25T00:00:43;18.25;86.93
67641;SHT31;54434;50.096;20.082;2022-08-25T00:03:21;18.22;87.01
67641;SHT31;54434;50.096;20.082;2022-08-25T00:05:57;18.21;87.04
67641;SHT31;54434;50.096;20.082;2022-08-25T00:08:35;18.20;87.14
67641;SHT31;54434;50.096;20.082;2022-08-25T00:11:14;18.20;87.20
67641;SHT31;54434;50.096;20.082;2022-08-25T00:13:57;18.17;87.20
67641;SHT31;54434;50.096;20.082;2022-08-25T00:16:36;18.15;87.20
67641;SHT31;54434;50.096;20.082;2022-08-25T00:19:16;18.13;87.20
67641;SHT31;54434;50.096;20.082;2022-08-25T00:21:54;18.13;87.22
67641;SHT31;54434;50.096;20.082;2022-08-25T00:24:31;18.10;87.20
67641;SHT31;54434;50.096;20.082;2022-08-25T00:27:08;18.09;87.29
67641;SHT31;54434;50.096;20.082;2022-08-25T00:29:44;18.08;87.37
67641;SHT31;54434;50.096;20.082;2022-08-25T00:32:20;18.08;87.61
67641;SHT31;54434;50.096;20.082;2022-08-25T00:34:57;18.06;87.73
67641;SHT31;54434;50.096;20.082;2022-08-25T00:37:34;18.06;87.82
67641;SHT31;54434;50.096;20.082;2022-08-25T00:40:11;18.05;87.94
67641;SHT31;54434;50.096;20.082;2022-08-25T00:42:47;18.04;88.02
67641;SHT31;54434;50.096;20.082;2022-08-25T00:45:25;18.02;88.14
67641;SHT31;54434;50.096;20.082;2022-08-25T00:48:02;18.03;88.27
67641;SHT31;54434;50.096;20.082;2022-08-25T00:50:38;18.02;88.37
67641;SHT31;54434;50.096;20.082;2022-08-25T00:53:14;18.03;88.43
67641;SHT31;54434;50.096;20.082;2022-08-25T00:55:51;18.02;88.50
67641;SHT31;54434;50.096;20.082;2022-08-25T00:58:28;18.00;88.50
67641;SHT31;54434;50.096;20.082;2022-08-25T01:01:09;17.98;88.50
67641;SHT31;54434;50.096;20.082;2022-08-25T01:03:45;17.96;88.52
67641;SHT31;54434;50.096;20.082;2022-08-25T01:06:21;17.95;88.53
67641;SHT31;54434;50.096;20.082;2022-08-25T01:08:58;17.93;88.47
67641;SHT31;54434;50.096;20.082;2022-08-25T01:11:35;17.92;88.42
67641;SHT31;54434;50.096;20.082;2022-08-25T01:14:12;17.92;88.44
67641;SHT31;54434;50.096;20.082;2022-08-25T01:16:52;17.92;88.40
67641;SHT31;54434;50.096;20.082;2022-08-25T01:19:29;17.92;88.44
67641;SHT31;54434;50.096;20.082;2022-08-25T01:22:06;17.91;88.40
67641;SHT31;54434;50.096;20.082;2022-08-25T01:24:43;17.90;88.39
67641;SHT31;54434;50.096;20.082;2022-08-25T01:27:28;17.90;88.40
67641;SHT31;54434;50.096;20.082;2022-08-25T01:30:05;17.91;88.46
67641;SHT31;54434;50.096;20.082;2022-08-25T01:32:43;17.91;88.50
67641;SHT31;54434;50.096;20.082;2022-08-25T01:35:19;17.90;88.50
67641;SHT31;54434;50.096;20.082;2022-08-25T01:37:55;17.88;88.49
67641;SHT31;54434;50.096;20.082;2022-08-25T01:40:33;17.86;88.45
67641;SHT31;54434;50.096;20.082;2022-08-25T01:43:21;17.86;88.47
67641;SHT31;54434;50.096;20.082;2022-08-25T01:46:09;17.85;88.57
67641;SHT31;54434;50.096;20.082;2022-08-25T01:48:45;17.84;88.62
67641;SHT31;54434;50.096;20.082;2022-08-25T01:51:24;17.85;88.71
67641;SHT31;54434;50.096;20.082;2022-08-25T01:54:05;17.83;88.71
67641;SHT31;54434;50.096;20.082;2022-08-25T01:56:42;17.84;88.76
67641;SHT31;54434;50.096;20.082;2022-08-25T01:59:18;17.84;88.73
67641;SHT31;54434;50.096;20.082;2022-08-25T02:01:55;17.84;88.73
67641;SHT31;54434;50.096;20.082;2022-08-25T02:04:35;17.83;88.77
67641;SHT31;54434;50.096;20.082;2022-08-25T02:07:14;17.83;88.78
67641;SHT31;54434;50.096;20.082;2022-08-25T02:09:51;17.82;88.78
67641;SHT31;54434;50.096;20.082;2022-08-25T02:12:33;17.81;88.76
67641;SHT31;54434;50.096;20.082;2022-08-25T02:15:09;17.80;88.76
67641;SHT31;54434;50.096;20.082;2022-08-25T02:17:45;17.78;88.76
67641;SHT31;54434;50.096;20.082;2022-08-25T02:20:22;17.77;88.80
67641;SHT31;54434;50.096;20.082;2022-08-25T02:22:59;17.78;88.80
67641;SHT31;54434;50.096;20.082;2022-08-25T02:25:35;17.77;88.79
67641;SHT31;54434;50.096;20.082;2022-08-25T02:28:14;17.77;88.79
67641;SHT31;54434;50.096;20.082;2022-08-25T02:30:50;17.76;88.77
67641;SHT31;54434;50.096;20.082;2022-08-25T02:33:32;17.75;88.81
67641;SHT31;54434;50.096;20.082;2022-08-25T02:36:08;17.75;88.82
67641;SHT31;54434;50.096;20.082;2022-08-25T02:38:45;17.74;88.82
67641;SHT31;54434;50.096;20.082;2022-08-25T02:41:23;17.73;88.83
67641;SHT31;54434;50.096;20.082;2022-08-25T02:44:02;17.71;88.89
67641;SHT31;54434;50.096;20.082;2022-08-25T02:46:40;17.70;88.90
67641;SHT31;54434;50.096;20.082;2022-08-25T02:49:16;17.71;88.91
67641;SHT31;54434;50.096;20.082;2022-08-25T02:51:52;17.68;88.90
67641;SHT31;54434;50.096;20.082;2022-08-25T02:54:29;17.68;88.94
67641;SHT31;54434;50.096;20.082;2022-08-25T02:57:06;17.68;88.99
67641;SHT31;54434;50.096;20.082;2022-08-25T02:59:44;17.68;88.98
67641;SHT31;54434;50.096;20.082;2022-08-25T03:02:20;17.67;88.92
67641;SHT31;54434;50.096;20.082;2022-08-25T03:04:56;17.67;88.90
67641;SHT31;54434;50.096;20.082;2022-08-25T03:07:33;17.66;88.86
67641;SHT31;54434;50.096;20.082;2022-08-25T03:10:15;17.64;88.81
67641;SHT31;54434;50.096;20.082;2022-08-25T03:12:52;17.63;88.82
67641;SHT31;54434;50.096;20.082;2022-08-25T03:15:28;17.60;88.79
67641;SHT31;54434;50.096;20.082;2022-08-25T03:18:08;17.58;88.86
67641;SHT31;54434;50.096;20.082;2022-08-25T03:20:44;17.56;88.91
67641;SHT31;54434;50.096;20.082;2022-08-25T03:23:20;17.54;88.87
67641;SHT31;54434;50.096;20.082;2022-08-25T03:25:57;17.52;88.78
67641;SHT31;54434;50.096;20.082;2022-08-25T03:29:00;17.51;88.70
67641;SHT31;54434;50.096;20.082;2022-08-25T03:31:37;17.49;88.73
67641;SHT31;54434;50.096;20.082;2022-08-25T03:34:16;17.48;88.70
67641;SHT31;54434;50.096;20.082;2022-08-25T03:36:54;17.46;88.75
67641;SHT31;54434;50.096;20.082;2022-08-25T03:39:31;17.44;88.83
67641;SHT31;54434;50.096;20.082;2022-08-25T03:42:07;17.44;88.89
67641;SHT31;54434;50.096;20.082;2022-08-25T03:44:43;17.43;88.87
67641;SHT31;54434;50.096;20.082;2022-08-25T03:47:19;17.42;88.82
67641;SHT31;54434;50.096;20.082;2022-08-25T03:49:56;17.42;88.90
67641;SHT31;54434;50.096;20.082;2022-08-25T03:52:33;17.43;88.83
67641;SHT31;54434;50.096;20.082;2022-08-25T03:55:13;17.43;88.80
67641;SHT31;54434;50.096;20.082;2022-08-25T03:57:50;17.43;88.74
67641;SHT31;54434;50.096;20.082;2022-08-25T04:00:27;17.44;88.82
67641;SHT31;54434;50.096;20.082;2022-08-25T04:03:03;17.43;89.00
67641;SHT31;54434;50.096;20.082;2022-08-25T04:05:39;17.46;89.09
67641;SHT31;54434;50.096;20.082;2022-08-25T04:08:16;17.48;89.10
67641;SHT31;54434;50.096;20.082;2022-08-25T04:10:52;17.50;89.12
67641;SHT31;54434;50.096;20.082;2022-08-25T04:13:28;17.56;89.19
67641;SHT31;54434;50.096;20.082;2022-08-25T04:16:10;17.62;89.16
67641;SHT31;54434;50.096;20.082;2022-08-25T04:18:49;17.70;89.14
67641;SHT31;54434;50.096;20.082;2022-08-25T04:21:27;17.77;89.11
67641;SHT31;54434;50.096;20.082;2022-08-25T04:24:06;17.85;89.10
67641;SHT31;54434;50.096;20.082;2022-08-25T04:26:46;17.95;89.04
67641;SHT31;54434;50.096;20.082;2022-08-25T04:29:24;18.06;88.92
67641;SHT31;54434;50.096;20.082;2022-08-25T04:32:00;18.17;88.84
67641;SHT31;54434;50.096;20.082;2022-08-25T04:34:37;18.31;88.78
67641;SHT31;54434;50.096;20.082;2022-08-25T04:37:14;18.47;88.60
67641;SHT31;54434;50.096;20.082;2022-08-25T04:39:50;18.69;88.53
67641;SHT31;54434;50.096;20.082;2022-08-25T04:42:26;18.97;88.16
67641;SHT31;54434;50.096;20.082;2022-08-25T04:45:03;19.22;87.75
67641;SHT31;54434;50.096;20.082;2022-08-25T04:47:40;19.49;87.20
67641;SHT31;54434;50.096;20.082;2022-08-25T04:50:17;19.73;86.53
67641;SHT31;54434;50.096;20.082;2022-08-25T04:52:53;20.00;86.33
67641;SHT31;54434;50.096;20.082;2022-08-25T04:55:29;20.29;85.77
67641;SHT31;54434;50.096;20.082;2022-08-25T04:58:11;20.62;85.18
67641;SHT31;54434;50.096;20.082;2022-08-25T05:00:47;20.96;84.55
67641;SHT31;54434;50.096;20.082;2022-08-25T05:03:23;21.30;83.57
67641;SHT31;54434;50.096;20.082;2022-08-25T05:05:59;21.65;82.81
67641;SHT31;54434;50.096;20.082;2022-08-25T05:08:36;21.97;82.19
67641;SHT31;54434;50.096;20.082;2022-08-25T05:11:16;22.36;81.21
67641;SHT31;54434;50.096;20.082;2022-08-25T05:13:55;22.71;79.96
67641;SHT31;54434;50.096;20.082;2022-08-25T05:16:33;23.07;79.02
67641;SHT31;54434;50.096;20.082;2022-08-25T05:19:10;23.43;77.92
67641;SHT31;54434;50.096;20.082;2022-08-25T05:21:46;23.78;77.08
67641;SHT31;54434;50.096;20.082;2022-08-25T05:24:23;24.17;76.16
67641;SHT31;54434;50.096;20.082;2022-08-25T05:27:00;24.47;74.84
67641;SHT31;54434;50.096;20.082;2022-08-25T05:29:36;24.78;73.72
67641;SHT31;54434;50.096;20.082;2022-08-25T05:32:13;24.99;72.25
67641;SHT31;54434;50.096;20.082;2022-08-25T05:34:48;25.17;72.13
67641;SHT31;54434;50.096;20.082;2022-08-25T05:37:25;25.50;71.13
67641;SHT31;54434;50.096;20.082;2022-08-25T05:40:01;25.71;70.41
67641;SHT31;54434;50.096;20.082;2022-08-25T05:42:39;26.00;69.85
67641;SHT31;54434;50.096;20.082;2022-08-25T05:45:16;26.28;69.16
67641;SHT31;54434;50.096;20.082;2022-08-25T05:47:52;26.51;68.15
67641;SHT31;54434;50.096;20.082;2022-08-25T05:50:29;26.83;67.58
67641;SHT31;54434;50.096;20.082;2022-08-25T05:53:05;27.12;66.69
67641;SHT31;54434;50.096;20.082;2022-08-25T05:55:44;27.23;65.14
67641;SHT31;54434;50.096;20.082;2022-08-25T05:58:21;27.38;65.86
67641;SHT31;54434;50.096;20.082;2022-08-25T06:00:59;27.70;64.33
67641;SHT31;54434;50.096;20.082;2022-08-25T06:03:50;27.75;64.29
67641;SHT31;54434;50.096;20.082;2022-08-25T06:06:26;28.07;63.95
67641;SHT31;54434;50.096;20.082;2022-08-25T06:09:04;28.47;62.91
67641;SHT31;54434;50.096;20.082;2022-08-25T06:11:41;28.77;62.49
67641;SHT31;54434;50.096;20.082;2022-08-25T06:14:17;29.07;61.32
67641;SHT31;54434;50.096;20.082;2022-08-25T06:16:53;29.16;61.15
67641;SHT31;54434;50.096;20.082;2022-08-25T06:19:30;29.41;61.06
67641;SHT31;54434;50.096;20.082;2022-08-25T06:22:11;29.69;60.10
67641;SHT31;54434;50.096;20.082;2022-08-25T06:24:47;29.91;59.31
67641;SHT31;54434;50.096;20.082;2022-08-25T06:27:29;30.16;58.36
67641;SHT31;54434;50.096;20.082;2022-08-25T06:30:08;30.27;57.50
67641;SHT31;54434;50.096;20.082;2022-08-25T06:32:54;30.48;57.36
67641;SHT31;54434;50.096;20.082;2022-08-25T06:35:31;30.71;56.64
67641;SHT31;54434;50.096;20.082;2022-08-25T06:38:07;30.81;56.14
67641;SHT31;54434;50.096;20.082;2022-08-25T06:40:47;30.80;55.28
67641;SHT31;54434;50.096;20.082;2022-08-25T06:43:24;30.87;55.93
67641;SHT31;54434;50.096;20.082;2022-08-25T06:46:07;31.08;54.81
67641;SHT31;54434;50.096;20.082;2022-08-25T06:48:46;31.07;54.62
67641;SHT31;54434;50.096;20.082;2022-08-25T06:51:24;31.16;54.45
67641;SHT31;54434;50.096;20.082;2022-08-25T06:54:00;31.27;54.46
67641;SHT31;54434;50.096;20.082;2022-08-25T06:56:39;31.52;54.36
67641;SHT31;54434;50.096;20.082;2022-08-25T06:59:20;31.72;53.81
67641;SHT31;54434;50.096;20.082;2022-08-25T07:02:04;31.73;53.52
67641;SHT31;54434;50.096;20.082;2022-08-25T07:04:42;31.84;53.20
67641;SHT31;54434;50.096;20.082;2022-08-25T07:07:18;31.94;53.10
67641;SHT31;54434;50.096;20.082;2022-08-25T07:09:54;32.01;53.25
67641;SHT31;54434;50.096;20.082;2022-08-25T07:12:30;32.06;52.66
67641;SHT31;54434;50.096;20.082;2022-08-25T07:15:07;32.16;52.01
67641;SHT31;54434;50.096;20.082;2022-08-25T07:17:51;32.19;51.69
67641;SHT31;54434;50.096;20.082;2022-08-25T07:20:29;32.22;51.36
67641;SHT31;54434;50.096;20.082;2022-08-25T07:23:07;32.26;50.86
67641;SHT31;54434;50.096;20.082;2022-08-25T07:25:43;32.27;51.66
67641;SHT31;54434;50.096;20.082;2022-08-25T07:28:20;32.37;51.30
67641;SHT31;54434;50.096;20.082;2022-08-25T07:30:57;32.42;50.69
67641;SHT31;54434;50.096;20.082;2022-08-25T07:33:35;32.42;50.68
67641;SHT31;54434;50.096;20.082;2022-08-25T07:36:32;32.18;51.04
67641;SHT31;54434;50.096;20.082;2022-08-25T07:39:10;31.99;51.22
67641;SHT31;54434;50.096;20.082;2022-08-25T07:41:52;31.79;50.89
67641;SHT31;54434;50.096;20.082;2022-08-25T07:44:29;31.26;52.18
67641;SHT31;54434;50.096;20.082;2022-08-25T07:47:05;31.02;52.35
67641;SHT31;54434;50.096;20.082;2022-08-25T07:49:41;30.56;52.49
67641;SHT31;54434;50.096;20.082;2022-08-25T07:52:17;30.00;54.05
67641;SHT31;54434;50.096;20.082;2022-08-25T07:54:53;29.95;55.11
67641;SHT31;54434;50.096;20.082;2022-08-25T07:57:30;29.95;54.99
67641;SHT31;54434;50.096;20.082;2022-08-25T08:00:08;29.67;55.37
67641;SHT31;54434;50.096;20.082;2022-08-25T08:02:49;29.37;56.00
67641;SHT31;54434;50.096;20.082;2022-08-25T08:05:25;29.15;56.71
67641;SHT31;54434;50.096;20.082;2022-08-25T08:08:02;28.90;56.77
67641;SHT31;54434;50.096;20.082;2022-08-25T08:10:40;28.83;57.69
67641;SHT31;54434;50.096;20.082;2022-08-25T08:13:36;28.84;57.74
67641;SHT31;54434;50.096;20.082;2022-08-25T08:16:13;29.00;58.00
67641;SHT31;54434;50.096;20.082;2022-08-25T08:18:52;29.27;57.55
67641;SHT31;54434;50.096;20.082;2022-08-25T08:21:30;29.60;56.41
67641;SHT31;54434;50.096;20.082;2022-08-25T08:24:08;29.70;55.66
67641;SHT31;54434;50.096;20.082;2022-08-25T08:27:01;29.79;55.77
67641;SHT31;54434;50.096;20.082;2022-08-25T08:29:40;30.00;55.15
67641;SHT31;54434;50.096;20.082;2022-08-25T08:32:16;30.04;55.13
67641;SHT31;54434;50.096;20.082;2022-08-25T08:35:07;30.14;55.28
67641;SHT31;54434;50.096;20.082;2022-08-25T08:37:45;30.20;55.29
67641;SHT31;54434;50.096;20.082;2022-08-25T08:40:24;30.28;55.17
67641;SHT31;54434;50.096;20.082;2022-08-25T08:43:06;30.43;55.32
67641;SHT31;54434;50.096;20.082;2022-08-25T08:45:51;30.60;54.91
67641;SHT31;54434;50.096;20.082;2022-08-25T08:48:37;30.61;53.94
67641;SHT31;54434;50.096;20.082;2022-08-25T08:51:24;30.47;54.81
67641;SHT31;54434;50.096;20.082;2022-08-25T08:54:13;30.50;54.74
67641;SHT31;54434;50.096;20.082;2022-08-25T08:57:01;30.58;54.73
67641;SHT31;54434;50.096;20.082;2022-08-25T08:59:49;30.60;54.09
67641;SHT31;54434;50.096;20.082;2022-08-25T09:02:32;30.37;54.53
67641;SHT31;54434;50.096;20.082;2022-08-25T09:05:24;30.27;54.99
67641;SHT31;54434;50.096;20.082;2022-08-25T09:08:10;30.18;55.03
67641;SHT31;54434;50.096;20.082;2022-08-25T09:10:56;30.17;56.00
67641;SHT31;54434;50.096;20.082;2022-08-25T09:13:47;30.27;55.10
67641;SHT31;54434;50.096;20.082;2022-08-25T09:16:47;30.05;55.08
67641;SHT31;54434;50.096;20.082;2022-08-25T09:20:01;29.76;55.95
67641;SHT31;54434;50.096;20.082;2022-08-25T09:22:56;29.43;56.48
67641;SHT31;54434;50.096;20.082;2022-08-25T09:25:55;29.14;57.40
67641;SHT31;54434;50.096;20.082;2022-08-25T09:28:53;29.03;58.78
67641;SHT31;54434;50.096;20.082;2022-08-25T09:31:46;29.00;57.39
67641;SHT31;54434;50.096;20.082;2022-08-25T09:34:29;28.85;58.38
67641;SHT31;54434;50.096;20.082;2022-08-25T09:37:07;28.78;58.07
67641;SHT31;54434;50.096;20.082;2022-08-25T09:39:43;28.66;58.59
67641;SHT31;54434;50.096;20.082;2022-08-25T09:42:20;28.64;58.83
67641;SHT31;54434;50.096;20.082;2022-08-25T09:45:32;28.74;58.75
67641;SHT31;54434;50.096;20.082;2022-08-25T09:48:25;28.72;58.70
67641;SHT31;54434;50.096;20.082;2022-08-25T09:51:16;28.62;58.29
67641;SHT31;54434;50.096;20.082;2022-08-25T09:53:58;28.49;58.48
67641;SHT31;54434;50.096;20.082;2022-08-25T09:56:49;28.48;59.49
67641;SHT31;54434;50.096;20.082;2022-08-25T09:59:29;28.46;59.27
67641;SHT31;54434;50.096;20.082;2022-08-25T10:02:24;28.43;59.52
67641;SHT31;54434;50.096;20.082;2022-08-25T10:05:04;28.49;60.19
67641;SHT31;54434;50.096;20.082;2022-08-25T10:07:58;28.54;61.12
67641;SHT31;54434;50.096;20.082;2022-08-25T10:10:51;28.58;59.56
67641;SHT31;54434;50.096;20.082;2022-08-25T10:13:37;28.52;59.46
67641;SHT31;54434;50.096;20.082;2022-08-25T10:16:24;28.61;59.92
67641;SHT31;54434;50.096;20.082;2022-08-25T10:19:09;28.58;59.48
67641;SHT31;54434;50.096;20.082;2022-08-25T10:22:07;28.53;59.52
67641;SHT31;54434;50.096;20.082;2022-08-25T10:24:57;28.49;59.48
67641;SHT31;54434;50.096;20.082;2022-08-25T10:27:37;28.51;59.57
67641;SHT31;54434;50.096;20.082;2022-08-25T10:30:27;28.50;58.83
67641;SHT31;54434;50.096;20.082;2022-08-25T10:33:20;28.49;59.25
67641;SHT31;54434;50.096;20.082;2022-08-25T10:36:13;28.52;60.21
67641;SHT31;54434;50.096;20.082;2022-08-25T10:39:01;28.61;60.62
67641;SHT31;54434;50.096;20.082;2022-08-25T10:42:02;28.72;59.67
67641;SHT31;54434;50.096;20.082;2022-08-25T10:45:14;28.72;59.13
67641;SHT31;54434;50.096;20.082;2022-08-25T10:51:44;28.68;58.58
67641;SHT31;54434;50.096;20.082;2022-08-25T10:54:34;28.60;58.75
67641;SHT31;54434;50.096;20.082;2022-08-25T10:57:33;28.54;58.46
67641;SHT31;54434;50.096;20.082;2022-08-25T11:00:25;28.51;58.85
67641;SHT31;54434;50.096;20.082;2022-08-25T11:03:19;28.59;59.61
67641;SHT31;54434;50.096;20.082;2022-08-25T11:06:18;28.64;59.52
67641;SHT31;54434;50.096;20.082;2022-08-25T11:09:01;28.67;59.79
67641;SHT31;54434;50.096;20.082;2022-08-25T11:11:46;28.68;58.58
67641;SHT31;54434;50.096;20.082;2022-08-25T11:14:30;28.64;59.18
67641;SHT31;54434;50.096;20.082;2022-08-25T11:17:13;28.67;59.53
67641;SHT31;54434;50.096;20.082;2022-08-25T11:19:58;28.69;59.35
67641;SHT31;54434;50.096;20.082;2022-08-25T11:23:04;28.64;59.26
67641;SHT31;54434;50.096;20.082;2022-08-25T11:25:50;28.59;58.70
67641;SHT31;54434;50.096;20.082;2022-08-25T11:28:34;28.56;57.81
67641;SHT31;54434;50.096;20.082;2022-08-25T11:31:24;28.56;58.02
67641;SHT31;54434;50.096;20.082;2022-08-25T11:34:01;28.54;58.62
67641;SHT31;54434;50.096;20.082;2022-08-25T11:36:41;28.51;58.42
67641;SHT31;54434;50.096;20.082;2022-08-25T11:39:32;28.54;59.43
67641;SHT31;54434;50.096;20.082;2022-08-25T11:42:33;28.59;59.32
67641;SHT31;54434;50.096;20.082;2022-08-25T11:48:46;28.62;58.54
67641;SHT31;54434;50.096;20.082;2022-08-25T11:51:45;28.64;58.68
67641;SHT31;54434;50.096;20.082;2022-08-25T11:54:25;28.67;59.01
67641;SHT31;54434;50.096;20.082;2022-08-25T11:57:09;28.74;58.65
67641;SHT31;54434;50.096;20.082;2022-08-25T12:00:09;28.75;57.97
67641;SHT31;54434;50.096;20.082;2022-08-25T12:06:30;28.82;57.63
67641;SHT31;54434;50.096;20.082;2022-08-25T12:09:20;28.85;56.60
67641;SHT31;54434;50.096;20.082;2022-08-25T12:11:57;28.88;56.75
67641;SHT31;54434;50.096;20.082;2022-08-25T12:15:18;28.94;57.14
67641;SHT31;54434;50.096;20.082;2022-08-25T12:18:13;28.95;56.73
67641;SHT31;54434;50.096;20.082;2022-08-25T12:21:32;28.97;57.26
67641;SHT31;54434;50.096;20.082;2022-08-25T12:24:14;28.97;56.37
67641;SHT31;54434;50.096;20.082;2022-08-25T12:26:57;28.96;56.51
67641;SHT31;54434;50.096;20.082;2022-08-25T12:29:40;28.97;56.84
67641;SHT31;54434;50.096;20.082;2022-08-25T12:32:30;28.96;57.03
67641;SHT31;54434;50.096;20.082;2022-08-25T12:35:37;28.98;56.76
67641;SHT31;54434;50.096;20.082;2022-08-25T12:38:33;28.99;57.13
67641;SHT31;54434;50.096;20.082;2022-08-25T12:41:25;29.04;56.83
67641;SHT31;54434;50.096;20.082;2022-08-25T12:44:31;29.10;55.67
67641;SHT31;54434;50.096;20.082;2022-08-25T12:47:25;29.17;55.70
67641;SHT31;54434;50.096;20.082;2022-08-25T12:50:28;29.20;56.19
67641;SHT31;54434;50.096;20.082;2022-08-25T12:53:13;29.19;55.40
67641;SHT31;54434;50.096;20.082;2022-08-25T12:56:04;29.22;55.54
67641;SHT31;54434;50.096;20.082;2022-08-25T12:58:52;29.26;54.74
67641;SHT31;54434;50.096;20.082;2022-08-25T13:02:09;29.28;54.93
67641;SHT31;54434;50.096;20.082;2022-08-25T13:05:39;29.31;53.78
67641;SHT31;54434;50.096;20.082;2022-08-25T13:08:56;29.29;54.27
67641;SHT31;54434;50.096;20.082;2022-08-25T13:12:11;29.27;54.09
67641;SHT31;54434;50.096;20.082;2022-08-25T13:14:55;29.24;54.31
67641;SHT31;54434;50.096;20.082;2022-08-25T13:17:33;29.25;54.54
67641;SHT31;54434;50.096;20.082;2022-08-25T13:20:15;29.25;53.52
67641;SHT31;54434;50.096;20.082;2022-08-25T13:22:59;29.24;53.33
67641;SHT31;54434;50.096;20.082;2022-08-25T13:25:37;29.23;53.56
67641;SHT31;54434;50.096;20.082;2022-08-25T13:28:25;29.21;52.57
67641;SHT31;54434;50.096;20.082;2022-08-25T13:31:08;29.23;52.80
67641;SHT31;54434;50.096;20.082;2022-08-25T13:33:54;29.23;52.26
67641;SHT31;54434;50.096;20.082;2022-08-25T13:36:41;29.22;52.93
67641;SHT31;54434;50.096;20.082;2022-08-25T13:39:37;29.26;53.19
67641;SHT31;54434;50.096;20.082;2022-08-25T13:42:28;29.27;53.18
67641;SHT31;54434;50.096;20.082;2022-08-25T13:45:08;29.23;53.48
67641;SHT31;54434;50.096;20.082;2022-08-25T13:47:51;29.28;52.95
67641;SHT31;54434;50.096;20.082;2022-08-25T13:50:33;29.26;52.07
67641;SHT31;54434;50.096;20.082;2022-08-25T13:53:14;29.22;51.56
67641;SHT31;54434;50.096;20.082;2022-08-25T13:56:01;29.21;52.20
67641;SHT31;54434;50.096;20.082;2022-08-25T13:58:42;29.25;51.73
67641;SHT31;54434;50.096;20.082;2022-08-25T14:01:20;29.29;51.67
67641;SHT31;54434;50.096;20.082;2022-08-25T14:04:27;29.29;51.34
67641;SHT31;54434;50.096;20.082;2022-08-25T14:07:29;29.32;51.55
67641;SHT31;54434;50.096;20.082;2022-08-25T14:10:07;29.35;51.56
67641;SHT31;54434;50.096;20.082;2022-08-25T14:13:11;29.36;51.81
67641;SHT31;54434;50.096;20.082;2022-08-25T14:16:10;29.39;52.32
67641;SHT31;54434;50.096;20.082;2022-08-25T14:18:56;29.40;51.33
67641;SHT31;54434;50.096;20.082;2022-08-25T14:21:35;29.40;52.36
67641;SHT31;54434;50.096;20.082;2022-08-25T14:24:15;29.40;51.99
67641;SHT31;54434;50.096;20.082;2022-08-25T14:26:54;29.37;52.42
67641;SHT31;54434;50.096;20.082;2022-08-25T14:29:31;29.36;52.13
67641;SHT31;54434;50.096;20.082;2022-08-25T14:32:11;29.36;52.13
67641;SHT31;54434;50.096;20.082;2022-08-25T14:34:49;29.34;51.31
67641;SHT31;54434;50.096;20.082;2022-08-25T14:37:26;29.36;51.38
67641;SHT31;54434;50.096;20.082;2022-08-25T14:40:04;29.36;51.29
67641;SHT31;54434;50.096;20.082;2022-08-25T14:42:44;29.33;50.86
67641;SHT31;54434;50.096;20.082;2022-08-25T14:45:21;29.34;51.02
67641;SHT31;54434;50.096;20.082;2022-08-25T14:48:00;29.35;50.67
67641;SHT31;54434;50.096;20.082;2022-08-25T14:50:42;29.34;51.14
67641;SHT31;54434;50.096;20.082;2022-08-25T14:53:21;29.35;51.30
67641;SHT31;54434;50.096;20.082;2022-08-25T14:55:59;29.34;51.05
67641;SHT31;54434;50.096;20.082;2022-08-25T14:58:41;29.31;50.95
67641;SHT31;54434;50.096;20.082;2022-08-25T15:01:22;29.30;50.83
67641;SHT31;54434;50.096;20.082;2022-08-25T15:04:04;29.28;50.49
67641;SHT31;54434;50.096;20.082;2022-08-25T15:06:46;29.27;51.08
67641;SHT31;54434;50.096;20.082;2022-08-25T15:09:28;29.24;51.58
67641;SHT31;54434;50.096;20.082;2022-08-25T15:12:05;29.21;51.98
67641;SHT31;54434;50.096;20.082;2022-08-25T15:14:48;29.18;52.37
67641;SHT31;54434;50.096;20.082;2022-08-25T15:17:24;29.19;52.87
67641;SHT31;54434;50.096;20.082;2022-08-25T15:20:01;29.20;53.05
67641;SHT31;54434;50.096;20.082;2022-08-25T15:22:41;29.20;52.68
67641;SHT31;54434;50.096;20.082;2022-08-25T15:25:19;29.19;53.01
67641;SHT31;54434;50.096;20.082;2022-08-25T15:27:55;29.18;52.72
67641;SHT31;54434;50.096;20.082;2022-08-25T15:30:31;29.16;52.67
67641;SHT31;54434;50.096;20.082;2022-08-25T15:33:08;29.15;53.07
67641;SHT31;54434;50.096;20.082;2022-08-25T15:35:44;29.13;53.29
67641;SHT31;54434;50.096;20.082;2022-08-25T15:38:22;29.11;53.61
67641;SHT31;54434;50.096;20.082;2022-08-25T15:40:58;29.09;53.43
67641;SHT31;54434;50.096;20.082;2022-08-25T15:43:35;29.07;53.47
67641;SHT31;54434;50.096;20.082;2022-08-25T15:46:14;29.03;53.44
67641;SHT31;54434;50.096;20.082;2022-08-25T15:48:54;29.00;53.50
67641;SHT31;54434;50.096;20.082;2022-08-25T15:51:30;28.97;52.95
67641;SHT31;54434;50.096;20.082;2022-08-25T15:54:07;28.92;52.81
67641;SHT31;54434;50.096;20.082;2022-08-25T15:56:44;28.90;53.20
67641;SHT31;54434;50.096;20.082;2022-08-25T15:59:22;28.87;53.30
67641;SHT31;54434;50.096;20.082;2022-08-25T16:01:58;28.83;53.69
67641;SHT31;54434;50.096;20.082;2022-08-25T16:04:45;28.75;52.94
67641;SHT31;54434;50.096;20.082;2022-08-25T16:07:23;28.70;52.58
67641;SHT31;54434;50.096;20.082;2022-08-25T16:09:59;28.65;52.54
67641;SHT31;54434;50.096;20.082;2022-08-25T16:12:37;28.60;52.93
67641;SHT31;54434;50.096;20.082;2022-08-25T16:15:14;28.54;53.03
67641;SHT31;54434;50.096;20.082;2022-08-25T16:17:54;28.47;53.36
67641;SHT31;54434;50.096;20.082;2022-08-25T16:20:35;28.42;53.62
67641;SHT31;54434;50.096;20.082;2022-08-25T16:23:19;28.36;53.87
67641;SHT31;54434;50.096;20.082;2022-08-25T16:25:55;28.30;54.15
67641;SHT31;54434;50.096;20.082;2022-08-25T16:28:35;28.23;54.49
67641;SHT31;54434;50.096;20.082;2022-08-25T16:31:15;28.17;54.74
67641;SHT31;54434;50.096;20.082;2022-08-25T16:33:52;28.10;55.04
67641;SHT31;54434;50.096;20.082;2022-08-25T16:36:29;28.04;55.29
67641;SHT31;54434;50.096;20.082;2022-08-25T16:39:06;27.98;55.49
67641;SHT31;54434;50.096;20.082;2022-08-25T16:41:43;27.92;55.70
67641;SHT31;54434;50.096;20.082;2022-08-25T16:44:21;27.86;56.43
67641;SHT31;54434;50.096;20.082;2022-08-25T16:46:58;27.78;56.86
67641;SHT31;54434;50.096;20.082;2022-08-25T16:49:39;27.69;57.28
67641;SHT31;54434;50.096;20.082;2022-08-25T16:52:15;27.61;58.20
67641;SHT31;54434;50.096;20.082;2022-08-25T16:55:11;27.48;58.82
67641;SHT31;54434;50.096;20.082;2022-08-25T16:57:49;27.39;59.14